Terminal Aerodrome Forecast
Issued by NWS

Home | Current Version | Previous Version | Text Only | Print | Product List | Glossary On
Versions: 1 2 3 4 5 6 7 8 9 10 11 12 13 14
193
FTUS46 KPDT 052326
TAFBDN
TAF
KBDN 052326Z 0600/0624 VRB04KT P6SM BKN090
     FM060200 22012G22KT 6SM -SHRA BKN045 OVC070
     FM060700 22010KT P6SM SCT250
     FM061500 20010KT P6SM BKN120=

USA.gov is the U.S. government's official web portal to all federal, state and local government web resources and services.